Aérodrome :
LOGIN :

S'inscrire | Disclaimer

   EN    FR    IT 

 










Légende :    VFR   VFR Marginal   IFR   IFR Intensif   IFR Très Intensif
Visi : 
Plafond : 
>= 8 km
>= 3000ft
5 à 8 km
1000 à 3000 ft
1500m à 5 km
500 à 1000 ft
800 à 1500m
200 à 500 ft
< 800m
< 200 ft
Symboles :   Orages  Brouillard  Fortes neiges  Fortes précipitations  Vent > 20 kt
SIGMETs :   Divers  Orages  Givrage  Turbulence  Onde Orograph.  Cendres Volcan.







- Altitude de l'aérodrome : 102 ft
- Code IATA : CNG
- Voir les cartes d'approche


LFBG - Cognac

DERNIER METAR :
  • 132030Z AUTO 02005KT 7000 NSC 02/01 Q1012 NOSIG

METARs EXPIRÉS :
  • 132000Z AUTO 01007KT 7000 NSC 03/01 Q1011 NOSIG
  • 131930Z AUTO 02005KT 7000 NSC 03/01 Q1011 NOSIG
  • 131900Z AUTO 03006KT 8000 NSC 04/02 Q1010 TEMPO 4000 -RA
  • 131830Z AUTO 03009KT 9000 NSC 04/02 Q1010 TEMPO 4000 -RA
  • 131800Z AUTO 04006KT 8000 NSC 04/03 Q1010 TEMPO 4000 -RA

TAF TAF LFBG
Valide du 13 à 15h jusqu'au 14 à 15h UTC


131400Z 1315/1415 03006KT CAVOK
TEMPO 1315/1320 4000 -RA
PROB40 1404/1409 0800 FG VV///
Pas de NOTAMs connus pour ce terrain.
1 SIGMET publié pour la FIR Bordeaux (LFBB) :
 
Turbulence forte
LFBB SIGMET 6 VALID 132200/140200 LFPW
LFBB BORDEAUX FIR/UIR SEV TURB FCST WI N4245 W00045 - N4300 W00145 - N4430 W00145 - N4245 W00045 FL200/340 MOV E 15KT NC=



MET'MAP, la Météo Aéronautique d'un coup d'oeil ! - Copyright ORBIFLY Décembre 2007 - Disclaimer

ORBIFLY MET'MAP TEAM :

Programmation & Développement : Alexandra Zaïnal
Conception & Développement : Baudouin d'Aumeries
Co-Programmation & Développement : Marc-Olivier Méhu
Soutien technique & logistique : Manuel Goepfert

Contact : metmap@orbifly.com




SOURCES & CREDITS :

   NOAA